createdAt,value
2022-10-28T00:01:36.183Z,4.20
2022-10-28T00:04:02.384Z,4.63
2022-10-28T00:06:30.007Z,4.03
2022-10-28T00:08:56.733Z,4.37
2022-10-28T00:11:25.625Z,4.07
2022-10-28T00:13:53.303Z,4.17
2022-10-28T00:16:21.236Z,3.60
2022-10-28T00:18:49.437Z,3.83
2022-10-28T00:21:17.774Z,3.87
2022-10-28T00:23:44.246Z,4.17
2022-10-28T00:26:13.150Z,4.07
2022-10-28T00:28:43.112Z,4.77
2022-10-28T00:31:11.722Z,3.93
2022-10-28T00:33:37.917Z,4.17
2022-10-28T00:36:09.637Z,3.70
2022-10-28T00:38:35.813Z,3.87
2022-10-28T00:41:01.916Z,3.67
2022-10-28T00:43:38.482Z,4.10
2022-10-28T00:46:09.569Z,4.27
2022-10-28T00:48:40.464Z,3.80
2022-10-28T00:51:08.234Z,4.20
2022-10-28T00:53:34.609Z,3.67
2022-10-28T00:56:01.879Z,3.87
2022-10-28T00:58:29.223Z,4.20
2022-10-28T01:00:55.612Z,4.00
2022-10-28T01:03:22.571Z,4.07
2022-10-28T01:05:50.068Z,4.13
2022-10-28T01:08:17.080Z,4.10
2022-10-28T01:10:58.509Z,4.10
2022-10-28T01:13:33.917Z,3.70
2022-10-28T01:16:06.526Z,3.93
2022-10-28T01:18:40.538Z,3.50
2022-10-28T01:21:22.796Z,3.67
2022-10-28T01:23:59.241Z,3.57
2022-10-28T01:26:51.467Z,4.07
2022-10-28T01:29:58.096Z,4.10
2022-10-28T01:32:31.177Z,3.97
2022-10-28T01:35:04.185Z,4.30
2022-10-28T01:37:33.588Z,3.70
2022-10-28T01:40:05.133Z,4.47
2022-10-28T01:42:36.038Z,3.97
2022-10-28T01:45:07.190Z,4.27
2022-10-28T01:47:37.224Z,4.10
2022-10-28T01:50:05.864Z,4.00
2022-10-28T01:52:32.554Z,3.90
2022-10-28T01:55:03.255Z,4.10
2022-10-28T01:57:30.556Z,3.50
2022-10-28T01:59:57.154Z,3.80
2022-10-28T02:02:23.487Z,3.70
2022-10-28T02:04:50.277Z,3.83
2022-10-28T02:07:16.618Z,4.20
2022-10-28T02:09:55.013Z,3.90
2022-10-28T02:12:25.282Z,4.40
2022-10-28T02:15:03.672Z,4.20
2022-10-28T02:17:37.065Z,4.30
2022-10-28T02:20:09.432Z,3.20
2022-10-28T02:22:41.650Z,3.67
2022-10-28T02:25:10.904Z,4.00
2022-10-28T02:27:42.478Z,3.93
2022-10-28T02:30:13.696Z,4.10
2022-10-28T02:32:43.759Z,3.70
2022-10-28T02:35:13.656Z,3.47
2022-10-28T02:37:40.806Z,4.23
2022-10-28T02:40:11.553Z,3.97
2022-10-28T02:42:41.332Z,4.10
2022-10-28T02:45:11.200Z,4.10
2022-10-28T02:47:39.629Z,4.00
2022-10-28T02:50:07.535Z,3.97
2022-10-28T02:52:34.936Z,3.83
2022-10-28T02:55:03.780Z,3.97
2022-10-28T02:57:32.327Z,4.80
2022-10-28T03:00:00.364Z,4.00
2022-10-28T03:02:27.128Z,4.00
2022-10-28T03:04:53.629Z,4.07
2022-10-28T03:07:20.274Z,3.97
2022-10-28T03:09:47.115Z,4.37
2022-10-28T03:12:13.439Z,3.67
2022-10-28T03:14:39.630Z,4.73
2022-10-28T03:17:06.972Z,4.23
2022-10-28T03:19:33.208Z,3.43
2022-10-28T03:21:59.389Z,4.20
2022-10-28T03:24:25.748Z,3.90
2022-10-28T03:26:52.505Z,3.73
2022-10-28T03:29:18.673Z,3.73
2022-10-28T03:31:44.789Z,4.73
2022-10-28T03:34:10.950Z,3.93
2022-10-28T03:36:37.141Z,4.23
2022-10-28T03:39:03.570Z,4.10
2022-10-28T03:41:29.821Z,4.27
2022-10-28T03:43:56.857Z,3.87
2022-10-28T03:46:23.058Z,3.73
2022-10-28T03:48:49.291Z,3.60
2022-10-28T03:51:15.568Z,4.00
2022-10-28T03:53:41.773Z,3.77
2022-10-28T03:56:13.149Z,3.77
2022-10-28T03:58:41.263Z,4.20
2022-10-28T04:01:08.526Z,3.93
2022-10-28T04:03:34.829Z,4.00
2022-10-28T04:06:01.040Z,3.90
2022-10-28T04:08:27.222Z,3.90
2022-10-28T04:10:53.395Z,3.80
2022-10-28T04:13:19.600Z,3.90
2022-10-28T04:15:45.808Z,4.33
2022-10-28T04:18:12.617Z,4.03
2022-10-28T04:20:38.904Z,4.23
2022-10-28T04:23:05.304Z,4.27
2022-10-28T04:25:31.552Z,4.20
2022-10-28T04:27:57.737Z,3.67
2022-10-28T04:30:24.179Z,3.70
2022-10-28T04:32:50.354Z,4.20
2022-10-28T04:35:17.353Z,4.63
2022-10-28T04:37:43.595Z,4.00
2022-10-28T04:40:10.485Z,4.00
2022-10-28T04:42:36.572Z,4.33
2022-10-28T04:45:02.896Z,3.90
2022-10-28T04:47:29.057Z,4.40
2022-10-28T04:49:55.206Z,4.20
2022-10-28T04:52:21.946Z,4.20
2022-10-28T04:54:48.060Z,4.40
2022-10-28T04:57:14.188Z,4.33
2022-10-28T04:59:40.309Z,3.97
2022-10-28T05:02:06.533Z,3.97
2022-10-28T05:04:32.769Z,4.10
2022-10-28T05:06:58.901Z,3.60
2022-10-28T05:09:25.691Z,3.90
2022-10-28T05:11:51.825Z,4.37
2022-10-28T05:14:18.012Z,4.20
2022-10-28T05:16:44.106Z,4.40
2022-10-28T05:19:10.233Z,3.93
2022-10-28T05:21:36.346Z,4.57
2022-10-28T05:24:02.459Z,4.63
2022-10-28T05:26:29.240Z,4.00
2022-10-28T05:28:55.355Z,4.27
2022-10-28T05:31:21.463Z,3.87
2022-10-28T05:33:47.640Z,4.53
2022-10-28T05:36:13.749Z,4.30
2022-10-28T05:38:41.726Z,3.97
2022-10-28T05:41:07.852Z,4.27
2022-10-28T05:43:34.577Z,3.83
2022-10-28T05:46:01.856Z,4.70
2022-10-28T05:48:27.961Z,4.23
2022-10-28T05:50:54.104Z,4.47
2022-10-28T05:53:20.225Z,4.17
2022-10-28T05:55:47.863Z,4.43
2022-10-28T05:58:14.672Z,3.80
2022-10-28T06:00:41.417Z,4.43
2022-10-28T06:03:09.680Z,4.27
2022-10-28T06:05:35.956Z,3.47
2022-10-28T06:08:05.838Z,4.30
2022-10-28T06:10:32.456Z,5.03
2022-10-28T06:12:57.230Z,4.33
2022-10-28T06:15:24.052Z,4.00
2022-10-28T06:17:50.856Z,4.20
2022-10-28T06:20:17.354Z,4.30
2022-10-28T06:22:47.728Z,4.37
2022-10-28T06:25:14.048Z,4.27
2022-10-28T06:27:40.301Z,4.13
2022-10-28T06:30:07.245Z,4.70
2022-10-28T06:32:33.389Z,4.50
2022-10-28T06:35:00.123Z,4.17
2022-10-28T06:37:26.269Z,4.33
2022-10-28T06:39:52.427Z,3.80
2022-10-28T06:42:18.638Z,4.57
2022-10-28T06:44:44.760Z,4.40
2022-10-28T06:47:12.381Z,4.10
2022-10-28T06:49:38.484Z,4.10
2022-10-28T06:52:05.231Z,3.90
2022-10-28T06:54:31.421Z,4.10
2022-10-28T06:56:57.500Z,4.13
2022-10-28T06:59:23.783Z,4.23
2022-10-28T07:01:50.001Z,4.20
2022-10-28T07:04:16.192Z,4.50
2022-10-28T07:06:42.361Z,4.07
2022-10-28T07:09:11.195Z,4.00
2022-10-28T07:11:37.326Z,4.23
2022-10-28T07:14:03.444Z,4.77
2022-10-28T07:16:29.640Z,4.73
2022-10-28T07:18:55.782Z,4.40
2022-10-28T07:21:27.467Z,4.37
2022-10-28T07:23:55.188Z,3.63
2022-10-28T07:26:22.020Z,3.90
2022-10-28T07:28:48.176Z,4.30
2022-10-28T07:31:14.310Z,4.27
2022-10-28T07:33:40.606Z,4.10
2022-10-28T07:36:07.435Z,3.70
2022-10-28T07:38:34.309Z,3.97
2022-10-28T07:41:04.262Z,3.80
2022-10-28T07:43:31.030Z,3.97
2022-10-28T07:45:57.537Z,3.90
2022-10-28T07:48:23.836Z,3.70
2022-10-28T07:50:49.951Z,3.77
2022-10-28T07:55:55.342Z,3.53
2022-10-28T07:58:21.470Z,3.63
2022-10-28T08:00:48.264Z,4.17
2022-10-28T08:03:14.450Z,4.20
2022-10-28T08:05:40.601Z,3.77
2022-10-28T08:08:06.715Z,4.63
2022-10-28T08:10:32.891Z,4.67
2022-10-28T08:13:00.041Z,4.40
2022-10-28T08:15:26.195Z,4.90
2022-10-28T08:17:53.464Z,4.07
2022-10-28T08:20:20.220Z,4.07
2022-10-28T08:22:46.337Z,4.53
2022-10-28T08:25:12.494Z,3.87
2022-10-28T08:27:41.294Z,4.10
2022-10-28T08:30:08.731Z,4.70
2022-10-28T08:32:35.005Z,4.57
2022-10-28T08:35:01.731Z,3.93
2022-10-28T08:37:27.944Z,3.60
2022-10-28T08:39:54.132Z,3.70
2022-10-28T08:42:28.815Z,4.30
2022-10-28T08:45:18.411Z,4.73
2022-10-28T08:47:52.439Z,3.60
2022-10-28T08:50:21.509Z,3.53
2022-10-28T08:52:51.246Z,4.03
2022-10-28T08:55:20.747Z,3.93
2022-10-28T08:57:50.940Z,4.77
2022-10-28T09:00:20.756Z,4.40
2022-10-28T09:03:12.248Z,4.27
2022-10-28T09:05:39.875Z,3.80
2022-10-28T09:08:06.095Z,4.30
2022-10-28T09:10:55.928Z,3.70
2022-10-28T09:13:26.130Z,3.93
2022-10-28T09:15:58.317Z,4.60
2022-10-28T09:18:35.856Z,4.50
2022-10-28T09:21:05.067Z,4.37
2022-10-28T09:23:33.802Z,4.37
2022-10-28T09:26:09.362Z,4.33
2022-10-28T09:28:48.795Z,3.87
2022-10-28T09:31:20.251Z,3.77
2022-10-28T09:34:07.573Z,3.53
2022-10-28T09:36:37.750Z,3.80
2022-10-28T09:39:05.023Z,4.57
2022-10-28T09:41:33.551Z,3.93
2022-10-28T09:44:04.235Z,4.20
2022-10-28T09:46:33.341Z,4.03
2022-10-28T09:49:04.194Z,3.80
2022-10-28T09:51:34.547Z,4.30
2022-10-28T09:54:01.131Z,3.80
2022-10-28T09:56:28.690Z,4.40
2022-10-28T09:58:57.297Z,4.47
2022-10-28T10:01:23.546Z,4.03
2022-10-28T10:03:50.779Z,3.93
2022-10-28T10:06:19.371Z,3.93
2022-10-28T10:08:47.391Z,4.07
2022-10-28T10:11:30.957Z,4.13
2022-10-28T10:13:58.559Z,3.93
2022-10-28T10:16:29.735Z,4.60
2022-10-28T10:18:57.422Z,3.73
2022-10-28T10:21:40.564Z,4.40
2022-10-28T10:24:22.386Z,4.23
2022-10-28T10:26:48.548Z,4.30
2022-10-28T10:29:14.699Z,3.90
2022-10-28T10:31:40.860Z,4.30
2022-10-28T10:34:20.627Z,4.13
2022-10-28T10:36:49.426Z,4.30
2022-10-28T10:39:22.169Z,4.00
2022-10-28T10:41:48.547Z,4.07
2022-10-28T10:44:29.784Z,3.63
2022-10-28T10:47:15.903Z,4.30
2022-10-28T10:49:42.008Z,4.17
2022-10-28T10:52:18.072Z,4.27
2022-10-28T10:54:48.092Z,4.50
2022-10-28T10:57:16.840Z,3.73
2022-10-28T10:59:45.099Z,4.13
2022-10-28T11:02:22.154Z,4.23
2022-10-28T11:04:50.627Z,3.80
2022-10-28T11:07:16.921Z,4.50
2022-10-28T11:09:48.118Z,4.03
2022-10-28T11:12:16.051Z,4.40
2022-10-28T11:14:54.689Z,4.03
2022-10-28T11:17:24.361Z,3.90
2022-10-28T11:19:54.113Z,4.13
2022-10-28T11:22:28.508Z,4.20
2022-10-28T11:25:07.715Z,4.03
2022-10-28T11:27:43.238Z,5.20
2022-10-28T11:30:14.658Z,5.10
2022-10-28T11:33:08.127Z,4.20
2022-10-28T11:35:43.333Z,4.37
2022-10-28T11:38:21.987Z,4.10
2022-10-28T11:40:58.040Z,4.50
2022-10-28T11:43:30.407Z,4.83
2022-10-28T11:46:04.190Z,4.27
2022-10-28T11:48:40.946Z,4.67
2022-10-28T11:51:16.231Z,3.97
2022-10-28T11:53:56.011Z,4.07
2022-10-28T11:56:29.256Z,4.63
2022-10-28T11:59:07.735Z,4.90
2022-10-28T12:01:42.074Z,3.63
2022-10-28T12:04:20.574Z,4.50
2022-10-28T12:06:56.769Z,4.23
2022-10-28T12:09:26.804Z,4.10
2022-10-28T12:12:01.388Z,4.20
2022-10-28T12:14:33.638Z,3.77
2022-10-28T12:17:05.722Z,4.70
2022-10-28T12:19:34.339Z,4.47
2022-10-28T12:22:05.274Z,5.97
2022-10-28T12:24:34.584Z,4.60
2022-10-28T12:27:04.940Z,4.27
2022-10-28T12:29:36.375Z,4.27
2022-10-28T12:32:05.274Z,4.20
2022-10-28T12:34:34.431Z,4.33
2022-10-28T12:37:04.643Z,4.20
2022-10-28T12:39:33.476Z,4.10
2022-10-28T12:42:03.520Z,4.17
2022-10-28T12:44:32.278Z,3.23
2022-10-28T12:47:05.090Z,4.13
2022-10-28T12:49:43.797Z,4.83
2022-10-28T12:52:19.491Z,4.73
2022-10-28T12:54:53.910Z,4.27
2022-10-28T12:57:22.046Z,4.30
2022-10-28T12:59:51.687Z,5.10
2022-10-28T13:02:21.083Z,4.37
2022-10-28T13:04:47.329Z,4.33
2022-10-28T13:07:26.899Z,4.10
2022-10-28T13:10:03.483Z,3.97
2022-10-28T13:12:58.166Z,4.93
2022-10-28T13:15:49.262Z,4.30
2022-10-28T13:18:41.085Z,4.00
2022-10-28T13:21:13.984Z,4.17
2022-10-28T13:23:43.404Z,4.13
2022-10-28T13:26:16.891Z,4.60
2022-10-28T13:28:46.764Z,3.57
2022-10-28T13:31:14.635Z,4.20
2022-10-28T13:33:48.089Z,3.77
2022-10-28T13:36:19.337Z,3.53
2022-10-28T13:38:56.019Z,4.10
2022-10-28T13:41:33.712Z,3.80
2022-10-28T13:44:28.999Z,4.30
2022-10-28T13:47:03.159Z,4.00
2022-10-28T13:49:29.930Z,4.13
2022-10-28T13:52:01.136Z,4.10
2022-10-28T13:54:31.215Z,4.33
2022-10-28T13:57:02.891Z,4.87
2022-10-28T13:59:45.075Z,3.83
2022-10-28T14:02:36.372Z,3.87
2022-10-28T14:05:05.724Z,4.30
2022-10-28T14:07:33.499Z,4.30
2022-10-28T14:10:20.780Z,4.73
2022-10-28T14:12:47.975Z,4.17
2022-10-28T14:15:20.420Z,4.27
2022-10-28T14:17:49.674Z,4.70
2022-10-28T14:20:26.312Z,4.30
2022-10-28T14:22:53.520Z,4.50
2022-10-28T14:25:53.798Z,4.63
2022-10-28T14:28:54.159Z,4.23
2022-10-28T14:31:38.811Z,4.03
2022-10-28T14:34:38.544Z,4.67
2022-10-28T14:37:28.434Z,4.70
2022-10-28T14:40:08.128Z,4.63
2022-10-28T14:45:26.411Z,4.27
2022-10-28T14:48:07.748Z,4.20
2022-10-28T14:50:37.849Z,4.63
2022-10-28T14:53:05.825Z,3.80
2022-10-28T14:55:32.763Z,4.90
2022-10-28T14:58:12.137Z,4.90
2022-10-28T15:00:43.106Z,3.80
2022-10-28T15:03:11.154Z,5.20
2022-10-28T15:05:37.418Z,4.83
2022-10-28T15:08:04.347Z,4.43
2022-10-28T15:10:32.993Z,4.30
2022-10-28T15:13:00.053Z,4.33
2022-10-28T15:15:28.388Z,3.80
2022-10-28T15:17:55.049Z,4.50
2022-10-28T15:20:23.821Z,4.07
2022-10-28T15:22:50.522Z,4.33
2022-10-28T15:25:18.359Z,4.07
2022-10-28T15:27:45.817Z,3.80
2022-10-28T15:30:15.216Z,4.03
2022-10-28T15:32:41.798Z,3.87
2022-10-28T15:35:37.332Z,4.30
2022-10-28T15:38:24.377Z,3.83
2022-10-28T15:40:51.072Z,3.70
2022-10-28T15:43:18.987Z,4.10
2022-10-28T15:45:45.506Z,3.93
2022-10-28T15:48:13.650Z,5.00
2022-10-28T15:50:40.516Z,3.90
2022-10-28T15:53:32.629Z,3.70
2022-10-28T15:56:16.583Z,4.13
2022-10-28T15:58:43.826Z,3.90
2022-10-28T16:01:27.171Z,4.10
2022-10-28T16:03:53.432Z,4.07
2022-10-28T16:06:23.503Z,4.10
2022-10-28T16:09:03.004Z,3.77
2022-10-28T16:11:30.390Z,4.50
2022-10-28T16:13:57.278Z,4.17
2022-10-28T16:16:25.487Z,4.27
2022-10-28T16:18:57.795Z,3.37
2022-10-28T16:21:25.909Z,4.10
2022-10-28T16:23:55.692Z,4.50
2022-10-28T16:26:21.883Z,4.50
2022-10-28T16:28:48.136Z,4.20
2022-10-28T16:31:16.252Z,4.60
2022-10-28T16:33:42.647Z,3.97
2022-10-28T16:36:09.025Z,4.53
2022-10-28T16:38:36.421Z,5.20
2022-10-28T16:41:03.719Z,4.77
2022-10-28T16:43:30.549Z,4.37
2022-10-28T16:45:59.405Z,5.07
2022-10-28T16:48:26.871Z,4.53
2022-10-28T16:50:54.852Z,4.80
2022-10-28T16:53:21.303Z,4.93
2022-10-28T16:55:48.453Z,4.60
2022-10-28T16:58:15.293Z,5.10
2022-10-28T17:00:42.013Z,5.20
2022-10-28T17:03:11.041Z,4.37
2022-10-28T17:05:37.268Z,5.00
2022-10-28T17:08:07.307Z,5.47
2022-10-28T17:10:35.042Z,5.33
2022-10-28T17:13:02.557Z,5.23
2022-10-28T17:15:28.726Z,5.30
2022-10-28T17:17:55.048Z,5.20
2022-10-28T17:20:21.160Z,5.50
2022-10-28T17:22:47.329Z,5.50
2022-10-28T17:25:13.679Z,5.77
2022-10-28T17:27:39.873Z,5.97
2022-10-28T17:30:08.424Z,5.10
2022-10-28T17:32:34.628Z,5.47
2022-10-28T17:35:00.838Z,6.23
2022-10-28T17:37:27.004Z,6.30
2022-10-28T17:39:53.303Z,5.70
2022-10-28T17:42:19.492Z,5.40
2022-10-28T17:44:45.627Z,5.87
2022-10-28T17:47:12.544Z,6.37
2022-10-28T17:49:38.684Z,6.37
2022-10-28T17:52:04.926Z,6.33
2022-10-28T17:54:31.122Z,6.60
2022-10-28T17:56:57.424Z,5.87
2022-10-28T17:59:23.676Z,6.60
2022-10-28T18:01:49.957Z,6.67
2022-10-28T18:04:19.052Z,7.30
2022-10-28T18:06:45.183Z,6.57
2022-10-28T18:09:11.977Z,7.47
2022-10-28T18:11:39.155Z,7.37
2022-10-28T18:14:06.004Z,6.90
2022-10-28T18:16:32.881Z,7.37
2022-10-28T18:19:02.696Z,7.00
2022-10-28T18:21:29.465Z,7.97
2022-10-28T18:24:02.662Z,8.53
2022-10-28T18:26:29.651Z,8.47
2022-10-28T18:28:55.920Z,7.83
2022-10-28T18:31:22.956Z,8.10
2022-10-28T18:33:49.658Z,8.00
2022-10-28T18:36:17.672Z,7.73
2022-10-28T18:38:44.519Z,8.27
2022-10-28T18:41:11.397Z,8.53
2022-10-28T18:43:37.595Z,8.07
2022-10-28T18:46:03.905Z,7.87
2022-10-28T18:48:30.822Z,7.60
2022-10-28T18:50:57.801Z,8.20
2022-10-28T18:53:24.436Z,7.70
2022-10-28T18:55:51.419Z,8.10
2022-10-28T18:58:17.610Z,7.90
2022-10-28T19:00:43.965Z,7.40
2022-10-28T19:03:17.425Z,7.90
2022-10-28T19:05:43.954Z,6.77
2022-10-28T19:08:10.296Z,7.00
2022-10-28T19:10:36.674Z,7.33
2022-10-28T19:13:03.801Z,6.47
2022-10-28T19:15:30.239Z,6.97
2022-10-28T19:17:56.765Z,6.33
2022-10-28T19:20:23.991Z,6.67
2022-10-28T19:22:50.260Z,6.90
2022-10-28T19:25:16.577Z,7.43
2022-10-28T19:27:42.906Z,6.90
2022-10-28T19:30:13.444Z,7.40
2022-10-28T19:32:40.116Z,6.97
2022-10-28T19:35:06.987Z,7.77
2022-10-28T19:37:34.301Z,7.40
2022-10-28T19:40:00.621Z,7.80
2022-10-28T19:42:26.920Z,7.37
2022-10-28T19:44:53.474Z,7.67
2022-10-28T19:47:20.359Z,8.37
2022-10-28T19:49:46.616Z,8.37
2022-10-28T19:52:12.990Z,8.07
2022-10-28T19:54:39.215Z,7.97
2022-10-28T19:57:05.448Z,7.43
2022-10-28T19:59:31.609Z,8.13
2022-10-28T20:01:58.220Z,8.73
2022-10-28T20:04:26.075Z,7.43
2022-10-28T20:06:52.629Z,8.37
2022-10-28T20:09:19.148Z,8.97
2022-10-28T20:11:45.298Z,8.50
2022-10-28T20:14:12.985Z,9.30
2022-10-28T20:16:41.648Z,9.37
2022-10-28T20:19:08.200Z,8.57
2022-10-28T20:21:36.477Z,8.63
2022-10-28T20:24:04.574Z,9.17
2022-10-28T20:26:32.194Z,8.83
2022-10-28T20:28:59.643Z,8.17
2022-10-28T20:31:28.209Z,8.27
2022-10-28T20:33:56.005Z,8.50
2022-10-28T20:36:24.590Z,8.77
2022-10-28T20:38:55.454Z,8.30
2022-10-28T20:41:22.209Z,8.63
2022-10-28T20:43:49.117Z,8.73
2022-10-28T20:46:19.842Z,7.90
2022-10-28T20:48:46.656Z,7.50
2022-10-28T20:51:12.980Z,7.77
2022-10-28T20:53:39.208Z,7.53
2022-10-28T20:56:06.689Z,7.37
2022-10-28T20:58:34.300Z,7.30
2022-10-28T21:01:05.411Z,7.87
2022-10-28T21:03:32.203Z,7.50
2022-10-28T21:05:58.649Z,8.57
2022-10-28T21:08:24.987Z,7.90
2022-10-28T21:10:51.212Z,8.40
2022-10-28T21:13:18.077Z,7.77
2022-10-28T21:15:44.987Z,7.93
2022-10-28T21:18:11.745Z,7.90
2022-10-28T21:20:38.445Z,8.20
2022-10-28T21:23:05.338Z,8.27
2022-10-28T21:25:31.679Z,8.80
2022-10-28T21:27:58.259Z,8.50
2022-10-28T21:30:25.409Z,8.60
2022-10-28T21:32:51.899Z,8.27
2022-10-28T21:35:18.280Z,8.10
2022-10-28T21:37:44.432Z,8.07
2022-10-28T21:40:11.870Z,8.57
2022-10-28T21:42:38.019Z,8.73
2022-10-28T21:45:06.787Z,8.63
2022-10-28T21:47:33.789Z,9.23
2022-10-28T21:50:00.207Z,9.33
2022-10-28T21:52:26.406Z,8.40
2022-10-28T21:54:52.648Z,9.03
2022-10-28T21:57:18.803Z,8.43
2022-10-28T21:59:48.709Z,9.13
2022-10-28T22:02:15.331Z,8.53
2022-10-28T22:04:42.241Z,9.10
2022-10-28T22:07:08.377Z,8.40
2022-10-28T22:09:36.619Z,8.80
2022-10-28T22:12:04.188Z,9.23
2022-10-28T22:14:31.333Z,9.27
2022-10-28T22:16:57.463Z,9.43
2022-10-28T22:19:23.856Z,9.57
2022-10-28T22:21:50.671Z,9.53
2022-10-28T22:24:16.841Z,9.80
2022-10-28T22:26:42.984Z,9.57
2022-10-28T22:29:09.205Z,8.70
2022-10-28T22:31:35.403Z,9.60
2022-10-28T22:34:01.940Z,8.93
2022-10-28T22:36:29.439Z,9.03
2022-10-28T22:38:56.683Z,9.63
2022-10-28T22:41:24.036Z,9.00
2022-10-28T22:43:51.723Z,9.27
2022-10-28T22:46:18.438Z,9.03
2022-10-28T22:48:45.120Z,9.03
2022-10-28T22:51:11.560Z,9.07
2022-10-28T22:53:38.515Z,8.57
2022-10-28T22:56:06.220Z,8.63
2022-10-28T22:58:32.534Z,8.73
2022-10-28T23:01:06.659Z,8.70
2022-10-28T23:03:37.509Z,9.33
2022-10-28T23:06:04.028Z,8.73
2022-10-28T23:08:30.236Z,8.60
2022-10-28T23:10:57.081Z,9.87
2022-10-28T23:13:24.412Z,9.23
2022-10-28T23:15:50.583Z,10.03
2022-10-28T23:18:16.783Z,9.60
2022-10-28T23:20:43.000Z,9.03
2022-10-28T23:23:09.132Z,8.87
2022-10-28T23:25:35.299Z,8.90
2022-10-28T23:28:04.109Z,9.13
2022-10-28T23:30:31.048Z,9.53
2022-10-28T23:32:57.564Z,8.67
2022-10-28T23:35:23.892Z,8.73
2022-10-28T23:37:50.043Z,8.57
2022-10-28T23:40:16.338Z,9.60
2022-10-28T23:42:42.551Z,8.73
2022-10-28T23:45:09.434Z,9.33
2022-10-28T23:47:36.187Z,8.50
2022-10-28T23:50:02.845Z,9.50
2022-10-28T23:52:29.000Z,8.60
2022-10-28T23:54:55.138Z,8.97
2022-10-28T23:57:21.303Z,8.30
2022-10-28T23:59:47.447Z,9.77
